createdAt,value
2022-10-22T00:01:27.541Z,87.39
2022-10-22T00:03:56.444Z,87.81
2022-10-22T00:06:23.868Z,87.35
2022-10-22T00:08:53.738Z,87.25
2022-10-22T00:11:21.754Z,87.08
2022-10-22T00:13:53.379Z,87.40
2022-10-22T00:16:41.086Z,87.45
2022-10-22T00:19:10.710Z,87.58
2022-10-22T00:21:41.629Z,87.58
2022-10-22T00:24:22.123Z,87.62
2022-10-22T00:26:58.783Z,87.23
2022-10-22T00:29:26.172Z,87.65
2022-10-22T00:31:56.741Z,87.20
2022-10-22T00:34:25.108Z,87.75
2022-10-22T00:37:02.396Z,87.34
2022-10-22T00:39:30.262Z,87.35
2022-10-22T00:42:00.717Z,87.66
2022-10-22T00:45:05.723Z,88.10
2022-10-22T00:47:59.968Z,87.76
2022-10-22T00:50:52.788Z,87.61
2022-10-22T00:53:24.157Z,87.14
2022-10-22T00:55:54.637Z,87.25
2022-10-22T00:58:27.556Z,87.23
2022-10-22T01:00:56.876Z,86.99
2022-10-22T01:03:24.617Z,87.33
2022-10-22T01:06:02.505Z,87.29
2022-10-22T01:08:50.490Z,86.83
2022-10-22T01:11:31.231Z,87.56
2022-10-22T01:14:15.905Z,87.38
2022-10-22T01:17:08.667Z,87.00
2022-10-22T01:20:07.430Z,87.35
2022-10-22T01:22:46.868Z,86.90
2022-10-22T01:25:21.696Z,86.73
2022-10-22T01:28:10.924Z,86.73
2022-10-22T01:30:40.888Z,86.91
2022-10-22T01:33:13.777Z,86.87
2022-10-22T01:35:47.750Z,87.02
2022-10-22T01:38:19.736Z,86.82
2022-10-22T01:40:51.510Z,86.79
2022-10-22T01:43:23.513Z,87.15
2022-10-22T01:45:54.455Z,86.61
2022-10-22T01:49:01.300Z,86.67
2022-10-22T01:51:47.040Z,86.40
2022-10-22T01:54:23.440Z,86.76
2022-10-22T01:57:19.315Z,86.72
2022-10-22T02:00:17.674Z,86.51
2022-10-22T02:03:05.985Z,86.79
2022-10-22T02:05:46.353Z,86.44
2022-10-22T02:08:30.794Z,86.67
2022-10-22T02:11:00.755Z,86.46
2022-10-22T02:13:35.201Z,86.65
2022-10-22T02:16:04.786Z,86.68
2022-10-22T02:18:40.056Z,86.37
2022-10-22T02:21:11.259Z,86.83
2022-10-22T02:23:43.447Z,86.62
2022-10-22T02:26:19.915Z,86.62
2022-10-22T02:29:27.945Z,87.05
2022-10-22T02:32:03.319Z,86.68
2022-10-22T02:34:32.788Z,86.59
2022-10-22T02:37:02.872Z,86.64
2022-10-22T02:39:32.186Z,86.46
2022-10-22T02:42:03.277Z,86.81
2022-10-22T02:44:33.559Z,86.20
2022-10-22T02:47:01.032Z,86.48
2022-10-22T02:49:28.756Z,86.44
2022-10-22T02:51:56.310Z,86.45
2022-10-22T02:54:26.944Z,86.27
2022-10-22T02:56:54.224Z,86.48
2022-10-22T02:59:21.686Z,86.25
2022-10-22T03:01:53.523Z,86.39
2022-10-22T03:04:20.975Z,87.01
2022-10-22T03:06:49.276Z,86.65
2022-10-22T03:09:21.323Z,86.65
2022-10-22T03:11:54.043Z,86.64
2022-10-22T03:14:22.519Z,86.23
2022-10-22T03:16:50.774Z,86.77
2022-10-22T03:19:18.089Z,86.51
2022-10-22T03:21:53.863Z,86.84
2022-10-22T03:24:29.344Z,86.63
2022-10-22T03:26:56.804Z,86.32
2022-10-22T03:29:27.053Z,86.59
2022-10-22T03:32:15.755Z,86.54
2022-10-22T03:34:50.549Z,86.42
2022-10-22T03:37:57.943Z,86.64
2022-10-22T03:40:59.034Z,86.66
2022-10-22T03:44:19.031Z,87.52
2022-10-22T03:47:32.112Z,87.25
2022-10-22T03:50:31.123Z,87.48
2022-10-22T03:54:04.548Z,87.03
2022-10-22T03:56:14.375Z,87.05
2022-10-22T03:59:02.247Z,86.61
2022-10-22T04:01:34.286Z,86.89
2022-10-22T04:04:03.260Z,87.50
2022-10-22T04:06:33.346Z,86.81
2022-10-22T04:09:05.538Z,87.06
2022-10-22T04:11:36.934Z,86.88
2022-10-22T04:14:04.165Z,86.61
2022-10-22T04:16:32.942Z,86.86
2022-10-22T04:19:00.294Z,86.83
2022-10-22T04:21:28.984Z,86.83
2022-10-22T04:23:56.339Z,86.52
2022-10-22T04:26:29.178Z,86.82
2022-10-22T04:28:56.468Z,86.15
2022-10-22T04:31:26.624Z,86.75
2022-10-22T04:34:00.119Z,87.05
2022-10-22T04:36:32.745Z,86.16
2022-10-22T04:39:01.764Z,86.31
2022-10-22T04:41:38.923Z,86.39
2022-10-22T04:44:12.269Z,86.51
2022-10-22T04:46:46.029Z,86.18
2022-10-22T04:49:13.900Z,86.34
2022-10-22T04:52:32.647Z,86.26
2022-10-22T04:55:01.115Z,86.07
2022-10-22T04:57:32.562Z,86.21
2022-10-22T04:59:59.947Z,86.08
2022-10-22T05:02:29.840Z,85.21
2022-10-22T05:04:57.352Z,85.40
2022-10-22T05:07:26.039Z,85.49
2022-10-22T05:09:56.592Z,85.62
2022-10-22T05:12:26.338Z,85.43
2022-10-22T05:14:56.987Z,85.17
2022-10-22T05:17:24.608Z,85.35
2022-10-22T05:19:55.266Z,85.18
2022-10-22T05:23:14.136Z,85.41
2022-10-22T05:25:41.503Z,84.89
2022-10-22T05:28:08.872Z,85.50
2022-10-22T05:35:20.376Z,84.73
2022-10-22T05:37:47.642Z,85.33
2022-10-22T05:40:26.373Z,85.40
2022-10-22T05:42:55.603Z,84.91
2022-10-22T05:45:22.875Z,83.67
2022-10-22T05:47:50.326Z,84.80
2022-10-22T05:55:09.325Z,84.32
2022-10-22T06:00:42.812Z,84.35
2022-10-22T06:03:10.454Z,84.09
2022-10-22T06:05:41.448Z,84.17
2022-10-22T06:08:41.171Z,83.70
2022-10-22T06:11:25.662Z,83.42
2022-10-22T06:14:05.858Z,83.72
2022-10-22T06:16:36.759Z,83.74
2022-10-22T06:19:06.725Z,83.41
2022-10-22T06:21:41.044Z,83.21
2022-10-22T06:24:11.737Z,83.14
2022-10-22T06:26:49.461Z,82.80
2022-10-22T06:29:16.864Z,82.53
2022-10-22T06:31:48.147Z,82.64
2022-10-22T06:34:19.122Z,82.14
2022-10-22T06:36:50.311Z,81.84
2022-10-22T06:39:18.519Z,82.15
2022-10-22T06:42:59.412Z,81.69
2022-10-22T06:45:33.295Z,81.98
2022-10-22T06:48:03.957Z,82.17
2022-10-22T06:50:34.700Z,81.00
2022-10-22T06:53:12.719Z,81.42
2022-10-22T06:56:23.255Z,80.28
2022-10-22T06:58:57.989Z,80.79
2022-10-22T07:01:35.593Z,80.73
2022-10-22T07:04:19.690Z,80.83
2022-10-22T07:10:30.704Z,79.02
2022-10-22T07:13:00.597Z,80.37
2022-10-22T07:15:30.540Z,78.48
2022-10-22T07:17:59.403Z,79.16
2022-10-22T07:20:49.084Z,78.70
2022-10-22T07:23:19.946Z,78.57
2022-10-22T07:28:30.158Z,79.60
2022-10-22T07:31:21.611Z,79.22
2022-10-22T07:37:28.757Z,79.50
2022-10-22T07:40:16.739Z,78.83
2022-10-22T07:43:26.991Z,78.13
2022-10-22T07:46:24.185Z,77.94
2022-10-22T07:48:57.150Z,77.75
2022-10-22T07:51:29.675Z,77.36
2022-10-22T07:54:01.716Z,75.33
2022-10-22T07:56:33.545Z,77.18
2022-10-22T07:59:05.826Z,77.26
2022-10-22T08:01:42.252Z,76.65
2022-10-22T08:04:14.391Z,76.73
2022-10-22T08:06:47.286Z,77.28
2022-10-22T08:09:18.361Z,77.35
2022-10-22T08:11:49.344Z,77.59
2022-10-22T08:14:18.284Z,77.17
2022-10-22T08:16:46.792Z,77.10
2022-10-22T08:19:32.775Z,77.63
2022-10-22T08:22:13.471Z,78.26
2022-10-22T08:24:49.317Z,77.41
2022-10-22T08:27:17.181Z,78.30
2022-10-22T08:30:16.673Z,77.47
2022-10-22T08:33:28.173Z,77.61
2022-10-22T08:35:58.175Z,77.53
2022-10-22T08:38:28.414Z,77.49
2022-10-22T08:41:08.643Z,76.58
2022-10-22T08:44:00.944Z,76.74
2022-10-22T08:46:43.598Z,76.68
2022-10-22T08:49:23.690Z,77.43
2022-10-22T08:52:08.929Z,77.17
2022-10-22T08:54:57.552Z,77.19
2022-10-22T08:57:52.461Z,76.79
2022-10-22T09:00:38.958Z,76.89
2022-10-22T09:03:15.092Z,77.05
2022-10-22T09:06:14.260Z,77.52
2022-10-22T09:08:44.433Z,77.71
2022-10-22T09:11:19.500Z,76.77
2022-10-22T09:13:48.316Z,77.42
2022-10-22T09:16:18.295Z,76.94
2022-10-22T09:19:03.687Z,76.11
2022-10-22T09:21:39.635Z,76.33
2022-10-22T09:24:44.882Z,76.19
2022-10-22T09:27:32.009Z,76.15
2022-10-22T09:39:01.698Z,77.00
2022-10-22T10:38:29.872Z,75.09
2022-10-22T10:42:50.049Z,73.77
2022-10-22T11:13:05.600Z,74.43
2022-10-22T11:15:45.303Z,74.58
2022-10-22T11:20:25.928Z,74.68
2022-10-22T11:23:18.094Z,74.08
2022-10-22T11:25:28.871Z,74.61
2022-10-22T11:32:30.675Z,74.84
2022-10-22T11:38:51.430Z,75.00
2022-10-22T11:42:06.647Z,75.21
2022-10-22T11:49:55.881Z,74.03
2022-10-22T11:52:53.055Z,75.10
2022-10-22T11:57:15.451Z,74.47
2022-10-22T12:00:33.856Z,74.08
2022-10-22T12:08:03.850Z,74.13
2022-10-22T12:20:07.149Z,74.23
2022-10-22T12:38:19.879Z,74.20
2022-10-22T12:41:05.352Z,74.71
2022-10-22T12:43:35.648Z,74.29
2022-10-22T12:46:11.149Z,75.30
2022-10-22T12:49:03.630Z,75.07
2022-10-22T12:51:55.566Z,73.89
2022-10-22T12:55:02.786Z,74.94
2022-10-22T12:57:36.456Z,74.34
2022-10-22T13:00:04.339Z,74.84
2022-10-22T13:02:31.914Z,74.08
2022-10-22T13:05:27.477Z,73.70
2022-10-22T13:09:02.408Z,74.32
2022-10-22T13:11:48.918Z,74.83
2022-10-22T13:14:35.642Z,75.57
2022-10-22T13:18:06.682Z,75.95
2022-10-22T13:22:14.199Z,75.72
2022-10-22T19:48:38.335Z,83.47
2022-10-22T19:51:10.929Z,82.66
2022-10-22T19:53:45.184Z,82.57
2022-10-22T19:56:30.390Z,83.20
2022-10-22T19:58:59.643Z,82.45
2022-10-22T20:01:29.603Z,82.92
2022-10-22T20:03:58.334Z,82.60
2022-10-22T20:06:26.515Z,82.72
2022-10-22T20:08:56.212Z,82.88
2022-10-22T20:11:27.733Z,82.90
2022-10-22T20:13:58.360Z,82.57
2022-10-22T20:16:31.075Z,82.80
2022-10-22T20:19:04.976Z,82.69
2022-10-22T20:21:35.413Z,82.72
2022-10-22T20:24:05.320Z,82.54
2022-10-22T20:26:32.852Z,82.52
2022-10-22T20:29:03.158Z,82.98
2022-10-22T20:31:31.439Z,83.19
2022-10-22T20:34:02.824Z,82.67
2022-10-22T20:36:32.210Z,83.00
2022-10-22T20:39:02.656Z,82.58
2022-10-22T20:41:36.434Z,82.41
2022-10-22T20:44:06.837Z,82.91
2022-10-22T20:46:35.112Z,82.92
2022-10-22T20:49:06.491Z,83.03
2022-10-22T20:51:47.200Z,82.90
2022-10-22T20:54:23.249Z,82.64
2022-10-22T20:56:59.396Z,82.83
2022-10-22T20:59:35.241Z,82.97
2022-10-22T21:02:13.854Z,82.80
2022-10-22T21:05:02.038Z,82.61
2022-10-22T21:07:29.718Z,82.83
2022-10-22T21:10:06.851Z,83.32
2022-10-22T21:16:26.001Z,82.96
2022-10-22T21:19:01.800Z,82.01
2022-10-22T21:21:30.776Z,82.92
2022-10-22T21:23:58.331Z,82.70
2022-10-22T21:26:28.447Z,82.49
2022-10-22T21:29:00.451Z,83.23
2022-10-22T21:31:28.220Z,82.21
2022-10-22T21:33:59.181Z,81.04
2022-10-22T21:36:26.928Z,80.59
2022-10-22T21:38:55.771Z,80.51
2022-10-22T21:41:55.292Z,79.66
2022-10-22T21:44:22.726Z,80.26
2022-10-22T21:46:59.086Z,80.92
2022-10-22T21:49:29.284Z,81.75
2022-10-22T21:52:01.018Z,80.92
2022-10-22T21:54:37.715Z,81.48
2022-10-22T21:57:13.028Z,81.71
2022-10-22T21:59:50.180Z,81.19
2022-10-22T22:02:22.359Z,81.56
2022-10-22T22:04:56.136Z,81.27
2022-10-22T22:07:23.869Z,81.44
2022-10-22T22:09:54.402Z,80.93
2022-10-22T22:12:25.681Z,81.08
2022-10-22T22:14:56.752Z,80.89
2022-10-22T22:17:29.172Z,80.77
2022-10-22T22:19:56.995Z,81.58
2022-10-22T22:22:26.649Z,80.51
2022-10-22T22:24:57.104Z,80.66
2022-10-22T22:27:35.714Z,80.30
2022-10-22T22:30:04.311Z,80.40
2022-10-22T22:33:32.281Z,80.48
2022-10-22T22:36:05.802Z,80.54
2022-10-22T22:38:35.588Z,79.96
2022-10-22T22:41:05.615Z,79.99
2022-10-22T22:43:33.568Z,79.94
2022-10-22T22:46:08.016Z,80.14
2022-10-22T22:48:40.899Z,79.63
2022-10-22T22:51:08.801Z,79.88
2022-10-22T22:53:39.342Z,79.69
2022-10-22T22:56:15.652Z,79.61
2022-10-22T22:58:47.316Z,79.62
2022-10-22T23:01:31.302Z,78.94
2022-10-22T23:04:27.039Z,79.16
2022-10-22T23:07:03.682Z,79.89
2022-10-22T23:09:33.737Z,79.51
2022-10-22T23:13:24.711Z,79.14
2022-10-22T23:15:54.560Z,79.28
2022-10-22T23:18:24.822Z,79.58
2022-10-22T23:20:56.302Z,79.37
2022-10-22T23:23:24.891Z,79.50
2022-10-22T23:28:27.135Z,79.54
2022-10-22T23:31:06.618Z,79.51
2022-10-22T23:33:36.489Z,78.90
2022-10-22T23:36:07.119Z,79.30
2022-10-22T23:38:46.244Z,79.51
2022-10-22T23:41:17.214Z,79.66
2022-10-22T23:43:45.038Z,79.35
2022-10-22T23:46:18.697Z,79.85
2022-10-22T23:48:51.076Z,79.48
2022-10-22T23:51:25.125Z,79.49
2022-10-22T23:54:02.205Z,79.42
2022-10-22T23:56:32.633Z,79.09
2022-10-22T23:59:02.576Z,78.86
